Tiffany, Colorado
Current Conditions -  °F | °C
As of 2:53 AM on Sunday 21 Dec 2014 (Local Time) from KDRO Reporting Station
Clear Clear  
Wind Chill: 25°   Ceiling: Unl
Heat Index: 25°   Visibility: 9mi
Dew Point: 23°   Wind: 3mph
Humidity: 92%   Direction: 50°NE
Pressure: 30.07"   Gusts: NA
Location:  37.0891°N, 107.649°W
Report Text: KDRO 210953Z AUTO 05003KT 9SM CLR M04/M05 A3007 RMK AO2 SLP201 T10391050
Loading
Personal Weather Stations






























Interactive Weather Map New forecast layout! Learn more

10-Day Weather Forecast

Advertisements
Track Severe Weather on mobile